sensor_id;sensor_type;location;lat;lon;timestamp;pressure;altitude;pressure_sealevel;temperature;humidity
51081;BME280;37130;55.670;37.596;2023-02-21T00:02:00;97232.25;;;-10.72;83.27
51081;BME280;37130;55.670;37.596;2023-02-21T00:04:46;97237.38;;;-10.65;83.75
51081;BME280;37130;55.670;37.596;2023-02-21T00:07:33;97251.84;;;-10.57;83.28
51081;BME280;37130;55.670;37.596;2023-02-21T00:10:19;97123.31;;;-11.27;82.41
51081;BME280;37130;55.670;37.596;2023-02-21T00:13:05;97234.78;;;-10.66;82.29
51081;BME280;37130;55.670;37.596;2023-02-21T00:15:51;97229.72;;;-10.75;82.41
51081;BME280;37130;55.670;37.596;2023-02-21T00:18:37;97233.09;;;-10.69;82.82
51081;BME280;37130;55.670;37.596;2023-02-21T00:21:26;97218.66;;;-10.71;82.67
51081;BME280;37130;55.670;37.596;2023-02-21T00:24:14;97220.31;;;-10.64;82.55
51081;BME280;37130;55.670;37.596;2023-02-21T00:27:02;97111.41;;;-11.22;83.25
51081;BME280;37130;55.670;37.596;2023-02-21T00:29:49;97127.56;;;-11.08;83.15
51081;BME280;37130;55.670;37.596;2023-02-21T00:32:35;97217.75;;;-10.61;84.25
51081;BME280;37130;55.670;37.596;2023-02-21T00:35:22;97209.25;;;-10.63;83.14
51081;BME280;37130;55.670;37.596;2023-02-21T00:38:09;97142.88;;;-11.05;82.66
51081;BME280;37130;55.670;37.596;2023-02-21T00:40:56;97209.25;;;-10.69;82.66
51081;BME280;37130;55.670;37.596;2023-02-21T00:43:42;97210.06;;;-10.56;82.91
51081;BME280;37130;55.670;37.596;2023-02-21T00:46:28;97198.13;;;-10.53;83.50
51081;BME280;37130;55.670;37.596;2023-02-21T00:49:14;97205.78;;;-10.47;84.23
51081;BME280;37130;55.670;37.596;2023-02-21T00:52:00;97203.22;;;-10.48;82.59
51081;BME280;37130;55.670;37.596;2023-02-21T00:54:46;97201.50;;;-10.51;83.42
51081;BME280;37130;55.670;37.596;2023-02-21T00:57:32;97187.06;;;-10.55;83.27
51081;BME280;37130;55.670;37.596;2023-02-21T01:00:22;97149.63;;;-10.81;83.42
51081;BME280;37130;55.670;37.596;2023-02-21T01:03:10;97186.19;;;-10.52;83.25
51081;BME280;37130;55.670;37.596;2023-02-21T01:05:56;97188.75;;;-10.48;82.74
51081;BME280;37130;55.670;37.596;2023-02-21T01:08:44;97171.72;;;-10.61;83.74
51081;BME280;37130;55.670;37.596;2023-02-21T01:11:31;97183.63;;;-10.48;84.32
51081;BME280;37130;55.670;37.596;2023-02-21T01:14:18;97179.38;;;-10.52;83.82
51081;BME280;37130;55.670;37.596;2023-02-21T01:17:04;97100.28;;;-11.02;83.57
51081;BME280;37130;55.670;37.596;2023-02-21T01:19:50;97172.56;;;-10.54;83.89
51081;BME280;37130;55.670;37.596;2023-02-21T01:22:36;97177.66;;;-10.54;83.67
51081;BME280;37130;55.670;37.596;2023-02-21T01:25:22;97161.47;;;-10.52;83.27
51081;BME280;37130;55.670;37.596;2023-02-21T01:28:08;97151.28;;;-10.64;83.55
51081;BME280;37130;55.670;37.596;2023-02-21T01:30:54;97158.97;;;-10.66;84.27
51081;BME280;37130;55.670;37.596;2023-02-21T01:33:41;97166.63;;;-10.67;84.29
51081;BME280;37130;55.670;37.596;2023-02-21T01:36:27;97164.09;;;-10.73;nan
51081;BME280;37130;55.670;37.596;2023-02-21T01:39:13;97166.66;;;-10.79;82.76
51081;BME280;37130;55.670;37.596;2023-02-21T01:42:00;97159.88;;;-10.88;83.96
51081;BME280;37130;55.670;37.596;2023-02-21T01:44:47;97147.13;;;-10.97;83.48
51081;BME280;37130;55.670;37.596;2023-02-21T01:47:33;97154.81;;;-10.97;83.54
51081;BME280;37130;55.670;37.596;2023-02-21T01:50:29;97154.78;;;-11.08;83.60
51081;BME280;37130;55.670;37.596;2023-02-21T01:53:19;97159.09;;;-11.18;83.17
51081;BME280;37130;55.670;37.596;2023-02-21T01:56:07;97136.13;;;-11.38;82.81
51081;BME280;37130;55.670;37.596;2023-02-21T01:58:56;97153.13;;;-11.40;82.70
51081;BME280;37130;55.670;37.596;2023-02-21T02:05:03;97064.69;;;-12.33;82.88
51081;BME280;37130;55.670;37.596;2023-02-21T02:07:51;97157.41;;;-11.74;83.69
51081;BME280;37130;55.670;37.596;2023-02-21T02:10:40;97158.25;;;-11.75;83.38
51081;BME280;37130;55.670;37.596;2023-02-21T02:22:09;97164.22;;;-11.90;83.88
51081;BME280;37130;55.670;37.596;2023-02-21T02:35:30;97170.09;;;-12.28;83.34
51081;BME280;37130;55.670;37.596;2023-02-21T02:38:10;97165.81;;;-12.38;83.97
51081;BME280;37130;55.670;37.596;2023-02-21T02:40:50;97159.00;;;-12.45;83.51
51081;BME280;37130;55.670;37.596;2023-02-21T02:43:31;97164.09;;;-12.47;83.89
51081;BME280;37130;55.670;37.596;2023-02-21T02:46:12;97167.44;;;-12.62;84.07
51081;BME280;37130;55.670;37.596;2023-02-21T02:51:21;97163.09;;;-12.80;84.53
51081;BME280;37130;55.670;37.596;2023-02-21T02:53:49;97149.47;;;-12.86;84.20
51081;BME280;37130;55.670;37.596;2023-02-21T02:56:16;97126.47;;;-13.06;83.64
51081;BME280;37130;55.670;37.596;2023-02-21T02:58:51;97152.88;;;-12.90;84.42
51081;BME280;37130;55.670;37.596;2023-02-21T03:13:36;97162.06;;;-13.14;83.66
51081;BME280;37130;55.670;37.596;2023-02-21T03:15:46;97157.84;;;-13.07;83.84
51081;BME280;37130;55.670;37.596;2023-02-21T03:20:53;97162.09;;;-13.09;84.21
51081;BME280;37130;55.670;37.596;2023-02-21T03:23:26;97168.84;;;-13.13;84.14
51081;BME280;37130;55.670;37.596;2023-02-21T03:25:58;97169.72;;;-13.14;84.15
51081;BME280;37130;55.670;37.596;2023-02-21T03:28:28;97032.69;;;-13.88;84.41
51081;BME280;37130;55.670;37.596;2023-02-21T03:30:58;97136.53;;;-13.29;84.08
51081;BME280;37130;55.670;37.596;2023-02-21T03:33:28;97156.97;;;-13.17;84.23
51081;BME280;37130;55.670;37.596;2023-02-21T03:35:58;97159.50;;;-13.18;83.45
51081;BME280;37130;55.670;37.596;2023-02-21T03:38:28;97137.41;;;-13.21;84.21
51081;BME280;37130;55.670;37.596;2023-02-21T03:40:56;97149.41;;;-13.02;84.56
51081;BME280;37130;55.670;37.596;2023-02-21T03:43:24;97137.53;;;-13.04;84.21
51081;BME280;37130;55.670;37.596;2023-02-21T03:45:58;97147.75;;;-12.93;83.94
51081;BME280;37130;55.670;37.596;2023-02-21T03:48:27;97131.63;;;-12.92;83.79
51081;BME280;37130;55.670;37.596;2023-02-21T03:51:19;97152.06;;;-12.77;83.94
51081;BME280;37130;55.670;37.596;2023-02-21T03:53:48;97127.38;;;-12.93;83.72
51081;BME280;37130;55.670;37.596;2023-02-21T03:56:18;97147.00;;;-12.75;83.90
51081;BME280;37130;55.670;37.596;2023-02-21T03:59:09;97141.03;;;-12.79;83.99
51081;BME280;37130;55.670;37.596;2023-02-21T04:01:36;97145.31;;;-12.72;84.17
51081;BME280;37130;55.670;37.596;2023-02-21T04:04:04;97034.63;;;-13.48;83.27
51081;BME280;37130;55.670;37.596;2023-02-21T04:06:33;97141.00;;;-12.82;83.38
51081;BME280;37130;55.670;37.596;2023-02-21T04:09:01;97130.75;;;-12.94;83.74
51081;BME280;37130;55.670;37.596;2023-02-21T04:11:30;97135.88;;;-12.93;84.15
51081;BME280;37130;55.670;37.596;2023-02-21T04:13:58;97145.25;;;-12.89;83.09
51081;BME280;37130;55.670;37.596;2023-02-21T04:16:26;97142.66;;;-12.92;83.22
51081;BME280;37130;55.670;37.596;2023-02-21T04:18:55;97136.72;;;-12.95;83.37
51081;BME280;37130;55.670;37.596;2023-02-21T04:21:24;97075.47;;;-13.28;83.64
51081;BME280;37130;55.670;37.596;2023-02-21T04:23:55;97135.91;;;-12.88;83.52
51081;BME280;37130;55.670;37.596;2023-02-21T04:26:26;96998.00;;;-13.80;83.71
51081;BME280;37130;55.670;37.596;2023-02-21T04:28:56;97130.72;;;-13.10;83.87
51081;BME280;37130;55.670;37.596;2023-02-21T04:31:23;97145.94;;;-13.13;82.82
51081;BME280;37130;55.670;37.596;2023-02-21T04:33:52;97151.00;;;-13.22;84.16
51081;BME280;37130;55.670;37.596;2023-02-21T04:36:37;97151.84;;;-13.28;83.14
51081;BME280;37130;55.670;37.596;2023-02-21T04:39:06;97157.78;;;-13.27;83.34
51081;BME280;37130;55.670;37.596;2023-02-21T04:41:34;97151.72;;;-13.46;83.37
51081;BME280;37130;55.670;37.596;2023-02-21T04:44:02;97153.38;;;-13.51;83.23
51081;BME280;37130;55.670;37.596;2023-02-21T04:46:33;97040.00;;;-14.31;83.68
51081;BME280;37130;55.670;37.596;2023-02-21T04:49:01;97177.06;;;-13.58;83.48
51081;BME280;37130;55.670;37.596;2023-02-21T04:51:28;97032.28;;;-14.42;83.68
51081;BME280;37130;55.670;37.596;2023-02-21T04:53:56;97158.38;;;-13.63;84.39
51081;BME280;37130;55.670;37.596;2023-02-21T04:56:24;97173.63;;;-13.66;83.93
51081;BME280;37130;55.670;37.596;2023-02-21T04:58:54;97175.22;;;-13.76;83.88
51081;BME280;37130;55.670;37.596;2023-02-21T05:01:22;97179.41;;;-13.83;83.20
51081;BME280;37130;55.670;37.596;2023-02-21T05:03:53;97180.19;;;-13.88;83.30
51081;BME280;37130;55.670;37.596;2023-02-21T05:06:22;97173.44;;;-13.88;83.46
51081;BME280;37130;55.670;37.596;2023-02-21T05:08:50;97175.19;;;-13.81;83.76
51081;BME280;37130;55.670;37.596;2023-02-21T05:11:19;97167.56;;;-13.79;83.26
51081;BME280;37130;55.670;37.596;2023-02-21T05:13:47;97139.47;;;-13.93;83.43
51081;BME280;37130;55.670;37.596;2023-02-21T05:16:15;97174.44;;;-13.68;84.21
51081;BME280;37130;55.670;37.596;2023-02-21T05:18:44;97168.53;;;-13.65;83.79
51081;BME280;37130;55.670;37.596;2023-02-21T05:21:13;97179.66;;;-13.54;83.51
51081;BME280;37130;55.670;37.596;2023-02-21T05:23:42;97169.47;;;-13.57;83.83
51081;BME280;37130;55.670;37.596;2023-02-21T05:26:27;97174.56;;;-13.54;84.14
51081;BME280;37130;55.670;37.596;2023-02-21T05:28:57;97169.50;;;-13.51;82.89
51081;BME280;37130;55.670;37.596;2023-02-21T05:31:31;97017.00;;;-14.48;83.57
51081;BME280;37130;55.670;37.596;2023-02-21T05:34:40;97029.81;;;-14.33;83.26
51081;BME280;37130;55.670;37.596;2023-02-21T05:37:11;97183.16;;;-13.36;83.20
51081;BME280;37130;55.670;37.596;2023-02-21T05:39:38;97142.34;;;-13.50;83.02
51081;BME280;37130;55.670;37.596;2023-02-21T05:42:06;97175.66;;;-13.10;82.74
51081;BME280;37130;55.670;37.596;2023-02-21T05:44:34;97164.72;;;-12.95;83.29
51081;BME280;37130;55.670;37.596;2023-02-21T05:47:02;97060.06;;;-13.54;83.22
51081;BME280;37130;55.670;37.596;2023-02-21T05:49:30;97084.75;;;-13.31;82.84
51081;BME280;37130;55.670;37.596;2023-02-21T05:51:58;97089.09;;;-13.12;83.34
51081;BME280;37130;55.670;37.596;2023-02-21T05:54:25;97174.34;;;-12.33;82.57
51081;BME280;37130;55.670;37.596;2023-02-21T05:56:53;97180.34;;;-12.06;82.55
51081;BME280;37130;55.670;37.596;2023-02-21T05:59:21;97176.97;;;-11.95;81.87
51081;BME280;37130;55.670;37.596;2023-02-21T06:01:49;97174.44;;;-11.90;81.85
51081;BME280;37130;55.670;37.596;2023-02-21T06:04:17;97169.31;;;-11.84;81.83
51081;BME280;37130;55.670;37.596;2023-02-21T06:06:45;97176.97;;;-11.72;81.90
51081;BME280;37130;55.670;37.596;2023-02-21T06:09:12;97148.03;;;-11.74;81.40
51081;BME280;37130;55.670;37.596;2023-02-21T06:11:40;97180.38;;;-11.27;81.85
51081;BME280;37130;55.670;37.596;2023-02-21T06:14:14;97161.59;;;-10.98;80.56
51081;BME280;37130;55.670;37.596;2023-02-21T06:16:42;97161.47;;;-10.52;80.57
51081;BME280;37130;55.670;37.596;2023-02-21T06:19:12;97153.50;;;-10.01;80.53
51081;BME280;37130;55.670;37.596;2023-02-21T06:21:40;97174.53;;;-9.53;79.13
51081;BME280;37130;55.670;37.596;2023-02-21T06:24:09;97160.56;;;-9.18;78.48
51081;BME280;37130;55.670;37.596;2023-02-21T06:26:37;97084.56;;;-9.21;77.34
51081;BME280;37130;55.670;37.596;2023-02-21T06:29:11;97116.84;;;-9.05;76.63
51081;BME280;37130;55.670;37.596;2023-02-21T06:31:38;97174.94;;;-9.02;76.44
51081;BME280;37130;55.670;37.596;2023-02-21T06:34:06;97155.38;;;-9.12;76.09
51081;BME280;37130;55.670;37.596;2023-02-21T06:36:37;97185.09;;;-8.91;77.94
51081;BME280;37130;55.670;37.596;2023-02-21T06:39:06;97168.41;;;-8.52;77.38
51081;BME280;37130;55.670;37.596;2023-02-21T06:41:34;97063.38;;;-8.61;76.40
51081;BME280;37130;55.670;37.596;2023-02-21T06:44:02;97159.44;;;-7.57;75.95
51081;BME280;37130;55.670;37.596;2023-02-21T06:46:32;97172.31;;;-7.04;74.03
51081;BME280;37130;55.670;37.596;2023-02-21T06:49:03;97171.44;;;-6.55;75.60
51081;BME280;37130;55.670;37.596;2023-02-21T06:51:38;97081.19;;;-6.92;75.15
51081;BME280;37130;55.670;37.596;2023-02-21T06:54:06;97124.59;;;-6.30;74.18
51081;BME280;37130;55.670;37.596;2023-02-21T06:56:35;97179.19;;;-6.14;74.19
51081;BME280;37130;55.670;37.596;2023-02-21T06:59:03;97168.00;;;-6.12;73.87
51081;BME280;37130;55.670;37.596;2023-02-21T07:01:31;97133.59;;;-6.53;72.25
51081;BME280;37130;55.670;37.596;2023-02-21T07:04:00;97156.84;;;-6.56;70.98
51081;BME280;37130;55.670;37.596;2023-02-21T07:06:27;97101.41;;;-6.30;71.36
51081;BME280;37130;55.670;37.596;2023-02-21T07:08:56;97078.63;;;-5.74;70.13
51081;BME280;37130;55.670;37.596;2023-02-21T07:11:23;97179.16;;;-4.67;70.71
51081;BME280;37130;55.670;37.596;2023-02-21T07:13:52;97180.72;;;-3.97;68.13
51081;BME280;37130;55.670;37.596;2023-02-21T07:16:20;97182.44;;;-3.68;67.25
51081;BME280;37130;55.670;37.596;2023-02-21T07:18:48;97162.91;;;-3.78;65.86
51081;BME280;37130;55.670;37.596;2023-02-21T07:21:16;97180.19;;;-3.79;65.31
51081;BME280;37130;55.670;37.596;2023-02-21T07:23:45;97082.75;;;-4.66;65.39
51081;BME280;37130;55.670;37.596;2023-02-21T07:26:13;97173.41;;;-4.44;64.23
51081;BME280;37130;55.670;37.596;2023-02-21T07:28:41;97174.00;;;-4.03;65.04
51081;BME280;37130;55.670;37.596;2023-02-21T07:31:09;97165.03;;;-3.61;65.62
51081;BME280;37130;55.670;37.596;2023-02-21T07:33:37;97187.53;;;-3.37;64.21
51081;BME280;37130;55.670;37.596;2023-02-21T07:36:05;97181.19;;;-3.26;63.61
51081;BME280;37130;55.670;37.596;2023-02-21T07:38:32;97124.63;;;-3.39;64.12
51081;BME280;37130;55.670;37.596;2023-02-21T07:41:01;97193.22;;;-2.99;63.09
51081;BME280;37130;55.670;37.596;2023-02-21T07:43:30;97180.03;;;-2.91;62.98
51081;BME280;37130;55.670;37.596;2023-02-21T07:45:57;97198.50;;;-3.02;62.85
51081;BME280;37130;55.670;37.596;2023-02-21T07:48:25;97188.84;;;-2.97;62.40
51081;BME280;37130;55.670;37.596;2023-02-21T07:50:52;97164.59;;;-2.94;60.71
51081;BME280;37130;55.670;37.596;2023-02-21T07:53:20;97061.34;;;-3.55;60.30
51081;BME280;37130;55.670;37.596;2023-02-21T07:55:48;97185.28;;;-3.19;60.55
51081;BME280;37130;55.670;37.596;2023-02-21T07:58:15;97193.84;;;-3.45;59.97
51081;BME280;37130;55.670;37.596;2023-02-21T08:00:43;97212.38;;;-3.89;61.88
51081;BME280;37130;55.670;37.596;2023-02-21T08:03:12;97203.03;;;-3.93;62.26
51081;BME280;37130;55.670;37.596;2023-02-21T08:05:40;97217.34;;;-4.14;62.63
51081;BME280;37130;55.670;37.596;2023-02-21T08:08:08;97128.22;;;-4.60;62.47
51081;BME280;37130;55.670;37.596;2023-02-21T08:10:36;97171.53;;;-4.07;61.74
51081;BME280;37130;55.670;37.596;2023-02-21T08:13:07;97196.91;;;-3.61;60.93
51081;BME280;37130;55.670;37.596;2023-02-21T08:15:35;97112.88;;;-4.35;59.20
51081;BME280;37130;55.670;37.596;2023-02-21T08:18:02;97197.53;;;-3.82;59.26
51081;BME280;37130;55.670;37.596;2023-02-21T08:20:30;97096.38;;;-4.60;59.97
51081;BME280;37130;55.670;37.596;2023-02-21T08:22:58;97203.69;;;-3.88;58.67
51081;BME280;37130;55.670;37.596;2023-02-21T08:25:25;97206.59;;;-3.99;59.18
51081;BME280;37130;55.670;37.596;2023-02-21T08:27:53;97169.25;;;-4.49;58.03
51081;BME280;37130;55.670;37.596;2023-02-21T08:30:21;97187.56;;;-4.26;59.63
51081;BME280;37130;55.670;37.596;2023-02-21T08:32:49;97153.44;;;-4.38;58.03
51081;BME280;37130;55.670;37.596;2023-02-21T08:35:18;96995.88;;;-5.63;56.47
51081;BME280;37130;55.670;37.596;2023-02-21T08:37:47;97104.78;;;-5.54;55.82
51081;BME280;37130;55.670;37.596;2023-02-21T08:40:18;97211.00;;;-5.36;54.58
51081;BME280;37130;55.670;37.596;2023-02-21T08:42:50;97143.03;;;-6.52;55.27
51081;BME280;37130;55.670;37.596;2023-02-21T08:45:20;97219.25;;;-6.93;55.94
51081;BME280;37130;55.670;37.596;2023-02-21T08:47:48;97202.81;;;-7.37;57.88
51081;BME280;37130;55.670;37.596;2023-02-21T08:50:17;97014.91;;;-8.83;59.35
51081;BME280;37130;55.670;37.596;2023-02-21T08:52:45;97134.09;;;-8.42;59.55
51081;BME280;37130;55.670;37.596;2023-02-21T08:55:13;97218.25;;;-7.99;60.07
51081;BME280;37130;55.670;37.596;2023-02-21T08:57:41;97219.66;;;-8.43;60.13
51081;BME280;37130;55.670;37.596;2023-02-21T09:00:10;97210.34;;;-8.53;60.19
51081;BME280;37130;55.670;37.596;2023-02-21T09:02:40;97203.53;;;-8.54;61.07
51081;BME280;37130;55.670;37.596;2023-02-21T09:05:17;97229.34;;;-8.72;61.31
51081;BME280;37130;55.670;37.596;2023-02-21T09:07:50;97223.34;;;-8.67;61.87
51081;BME280;37130;55.670;37.596;2023-02-21T09:10:18;97212.19;;;-8.64;62.05
51081;BME280;37130;55.670;37.596;2023-02-21T09:12:45;97224.72;;;-8.38;62.03
51081;BME280;37130;55.670;37.596;2023-02-21T09:15:14;97230.66;;;-8.34;61.35
51081;BME280;37130;55.670;37.596;2023-02-21T09:17:42;97215.53;;;-8.57;61.64
51081;BME280;37130;55.670;37.596;2023-02-21T09:20:14;97206.09;;;-8.57;62.31
51081;BME280;37130;55.670;37.596;2023-02-21T09:22:43;97134.22;;;-8.51;63.34
51081;BME280;37130;55.670;37.596;2023-02-21T09:25:16;97202.41;;;-7.65;62.89
51081;BME280;37130;55.670;37.596;2023-02-21T09:27:44;97162.34;;;-7.81;62.44
51081;BME280;37130;55.670;37.596;2023-02-21T09:30:15;97213.81;;;-7.25;63.32
51081;BME280;37130;55.670;37.596;2023-02-21T09:32:43;97218.06;;;-7.24;63.90
51081;BME280;37130;55.670;37.596;2023-02-21T09:35:12;97080.38;;;-7.95;63.54
51081;BME280;37130;55.670;37.596;2023-02-21T09:37:41;97220.56;;;-7.21;63.47
51081;BME280;37130;55.670;37.596;2023-02-21T09:40:24;97221.38;;;-7.78;63.44
51081;BME280;37130;55.670;37.596;2023-02-21T09:42:55;97191.56;;;-8.53;63.54
51081;BME280;37130;55.670;37.596;2023-02-21T09:45:28;97218.59;;;-8.28;64.17
51081;BME280;37130;55.670;37.596;2023-02-21T09:48:02;97189.59;;;-8.36;64.19
51081;BME280;37130;55.670;37.596;2023-02-21T09:50:36;97214.16;;;-8.15;64.00
51081;BME280;37130;55.670;37.596;2023-02-21T09:53:06;97120.72;;;-8.67;63.29
51081;BME280;37130;55.670;37.596;2023-02-21T09:55:37;97199.69;;;-8.21;63.69
51081;BME280;37130;55.670;37.596;2023-02-21T09:58:12;97218.50;;;-8.19;62.92
51081;BME280;37130;55.670;37.596;2023-02-21T10:00:40;97218.97;;;-8.58;62.33
51081;BME280;37130;55.670;37.596;2023-02-21T10:08:56;97224.19;;;-8.68;62.84
51081;BME280;37130;55.670;37.596;2023-02-21T10:17:09;97222.69;;;-8.11;63.37
51081;BME280;37130;55.670;37.596;2023-02-21T10:19:42;97192.81;;;-8.20;62.73
51081;BME280;37130;55.670;37.596;2023-02-21T10:22:18;97224.31;;;-8.06;62.86
51081;BME280;37130;55.670;37.596;2023-02-21T10:24:48;97229.47;;;-8.07;62.87
51081;BME280;37130;55.670;37.596;2023-02-21T10:27:22;97224.50;;;-8.21;62.69
51081;BME280;37130;55.670;37.596;2023-02-21T10:29:59;97226.09;;;-8.09;62.97
51081;BME280;37130;55.670;37.596;2023-02-21T10:32:30;97222.78;;;-8.19;62.80
51081;BME280;37130;55.670;37.596;2023-02-21T10:34:58;97139.69;;;-8.80;62.73
51081;BME280;37130;55.670;37.596;2023-02-21T10:37:38;97236.66;;;-8.37;62.72
51081;BME280;37130;55.670;37.596;2023-02-21T10:43:16;97237.47;;;-8.30;63.21
51081;BME280;37130;55.670;37.596;2023-02-21T10:46:24;97223.78;;;-8.34;62.81
51081;BME280;37130;55.670;37.596;2023-02-21T10:48:46;97252.66;;;-8.13;63.10
51081;BME280;37130;55.670;37.596;2023-02-21T10:51:17;97257.00;;;-8.17;63.57
51081;BME280;37130;55.670;37.596;2023-02-21T10:54:18;97260.38;;;-8.13;63.85
51081;BME280;37130;55.670;37.596;2023-02-21T10:56:51;97041.25;;;-9.45;63.58
51081;BME280;37130;55.670;37.596;2023-02-21T11:01:49;97263.81;;;-8.14;63.03
51081;BME280;37130;55.670;37.596;2023-02-21T11:06:53;97150.31;;;-9.17;62.80
51081;BME280;37130;55.670;37.596;2023-02-21T11:12:01;97269.44;;;-8.61;63.77
51081;BME280;37130;55.670;37.596;2023-02-21T11:14:30;97263.72;;;-8.90;62.94
51081;BME280;37130;55.670;37.596;2023-02-21T11:19:51;97280.00;;;-8.94;63.43
51081;BME280;37130;55.670;37.596;2023-02-21T11:22:42;97138.88;;;-9.82;63.55
51081;BME280;37130;55.670;37.596;2023-02-21T11:31:26;97278.16;;;-8.77;64.26
51081;BME280;37130;55.670;37.596;2023-02-21T11:34:00;97290.25;;;-8.93;63.39
51081;BME280;37130;55.670;37.596;2023-02-21T11:36:31;97285.97;;;-8.92;64.29
51081;BME280;37130;55.670;37.596;2023-02-21T11:39:23;97293.63;;;-8.89;63.75
51081;BME280;37130;55.670;37.596;2023-02-21T11:42:00;97294.56;;;-8.99;63.47
51081;BME280;37130;55.670;37.596;2023-02-21T11:44:38;97292.94;;;-9.11;63.94
51081;BME280;37130;55.670;37.596;2023-02-21T11:47:27;97294.63;;;-9.07;64.71
51081;BME280;37130;55.670;37.596;2023-02-21T11:53:03;97314.44;;;-9.29;64.13
51081;BME280;37130;55.670;37.596;2023-02-21T11:55:32;97312.63;;;-9.18;64.86
51081;BME280;37130;55.670;37.596;2023-02-21T12:00:45;97310.75;;;-8.93;63.88
51081;BME280;37130;55.670;37.596;2023-02-21T12:07:03;97310.03;;;-9.10;63.58
51081;BME280;37130;55.670;37.596;2023-02-21T12:18:00;97216.63;;;-10.02;64.28
51081;BME280;37130;55.670;37.596;2023-02-21T12:29:08;97340.91;;;-9.33;63.32
51081;BME280;37130;55.670;37.596;2023-02-21T12:45:19;97364.16;;;-9.73;65.55
51081;BME280;37130;55.670;37.596;2023-02-21T12:51:04;97372.66;;;-9.62;65.06
51081;BME280;37130;55.670;37.596;2023-02-21T12:53:39;97367.50;;;-9.59;65.52
51081;BME280;37130;55.670;37.596;2023-02-21T12:56:18;97379.41;;;-9.49;65.33
51081;BME280;37130;55.670;37.596;2023-02-21T13:01:52;97398.16;;;-9.39;64.60
51081;BME280;37130;55.670;37.596;2023-02-21T13:04:46;97388.75;;;-9.31;65.23
51081;BME280;37130;55.670;37.596;2023-02-21T13:07:19;97395.53;;;-9.25;65.14
51081;BME280;37130;55.670;37.596;2023-02-21T13:10:25;97387.06;;;-9.35;65.90
51081;BME280;37130;55.670;37.596;2023-02-21T13:13:08;97286.69;;;-10.26;65.49
51081;BME280;37130;55.670;37.596;2023-02-21T13:15:40;97382.06;;;-9.67;65.75
51081;BME280;37130;55.670;37.596;2023-02-21T13:18:15;97389.78;;;-9.73;66.39
51081;BME280;37130;55.670;37.596;2023-02-21T13:20:53;97382.97;;;-9.79;65.21
51081;BME280;37130;55.670;37.596;2023-02-21T13:23:22;97412.78;;;-9.65;65.37
51081;BME280;37130;55.670;37.596;2023-02-21T13:26:28;97415.34;;;-9.67;65.41
51081;BME280;37130;55.670;37.596;2023-02-21T13:28:59;97417.09;;;-9.81;66.06
51081;BME280;37130;55.670;37.596;2023-02-21T13:31:37;97405.19;;;-10.01;65.68
51081;BME280;37130;55.670;37.596;2023-02-21T13:34:10;97429.06;;;-9.91;66.05
51081;BME280;37130;55.670;37.596;2023-02-21T13:41:47;97323.44;;;-10.62;65.58
51081;BME280;37130;55.670;37.596;2023-02-21T13:44:30;97369.47;;;-10.70;66.07
51081;BME280;37130;55.670;37.596;2023-02-21T14:08:30;97503.31;;;-10.60;67.81
51081;BME280;37130;55.670;37.596;2023-02-21T14:10:59;97493.91;;;-10.70;66.56
51081;BME280;37130;55.670;37.596;2023-02-21T14:13:48;97505.81;;;-10.77;67.13
51081;BME280;37130;55.670;37.596;2023-02-21T14:19:01;97513.44;;;-10.88;67.45
51081;BME280;37130;55.670;37.596;2023-02-21T14:21:48;97422.91;;;-11.62;67.27
51081;BME280;37130;55.670;37.596;2023-02-21T14:24:26;97526.16;;;-11.06;67.77
51081;BME280;37130;55.670;37.596;2023-02-21T14:26:56;97514.19;;;-11.22;68.54
51081;BME280;37130;55.670;37.596;2023-02-21T14:29:38;97505.50;;;-11.51;67.45
51081;BME280;37130;55.670;37.596;2023-02-21T14:34:41;97542.16;;;-11.45;68.28
51081;BME280;37130;55.670;37.596;2023-02-21T14:37:43;97546.44;;;-11.44;67.90
51081;BME280;37130;55.670;37.596;2023-02-21T14:43:26;97557.47;;;-11.49;68.18
51081;BME280;37130;55.670;37.596;2023-02-21T14:51:50;97445.34;;;-12.48;68.34
51081;BME280;37130;55.670;37.596;2023-02-21T14:57:42;97570.91;;;-11.73;68.63
51081;BME280;37130;55.670;37.596;2023-02-21T15:05:54;97564.88;;;-11.88;68.66
51081;BME280;37130;55.670;37.596;2023-02-21T15:08:45;97599.03;;;-11.68;68.59
51081;BME280;37130;55.670;37.596;2023-02-21T15:11:26;97617.78;;;-11.61;69.56
51081;BME280;37130;55.670;37.596;2023-02-21T15:14:18;97623.72;;;-11.67;68.99
51081;BME280;37130;55.670;37.596;2023-02-21T15:16:56;97522.75;;;-12.44;69.12
51081;BME280;37130;55.670;37.596;2023-02-21T15:19:31;97515.97;;;-12.41;68.90
51081;BME280;37130;55.670;37.596;2023-02-21T15:22:34;97646.56;;;-11.81;69.20
51081;BME280;37130;55.670;37.596;2023-02-21T15:27:39;97642.34;;;-11.79;68.87
51081;BME280;37130;55.670;37.596;2023-02-21T15:30:26;97653.38;;;-11.80;69.35
51081;BME280;37130;55.670;37.596;2023-02-21T15:33:05;97650.81;;;-11.80;69.27
51081;BME280;37130;55.670;37.596;2023-02-21T15:35:39;97516.59;;;-12.65;69.07
51081;BME280;37130;55.670;37.596;2023-02-21T15:40:55;97438.03;;;-13.06;69.20
51081;BME280;37130;55.670;37.596;2023-02-21T15:43:39;97569.50;;;-12.39;69.22
51081;BME280;37130;55.670;37.596;2023-02-21T15:46:15;97680.75;;;-11.65;69.87
51081;BME280;37130;55.670;37.596;2023-02-21T15:48:53;97683.28;;;-11.63;70.00
51081;BME280;37130;55.670;37.596;2023-02-21T15:51:21;97677.34;;;-11.65;68.96
51081;BME280;37130;55.670;37.596;2023-02-21T15:56:47;97705.38;;;-11.70;69.84
51081;BME280;37130;55.670;37.596;2023-02-21T15:59:19;97696.88;;;-11.69;69.32
51081;BME280;37130;55.670;37.596;2023-02-21T16:02:15;97687.41;;;-11.81;69.64
51081;BME280;37130;55.670;37.596;2023-02-21T16:04:46;97659.16;;;-12.01;70.19
51081;BME280;37130;55.670;37.596;2023-02-21T16:07:35;97709.63;;;-11.71;69.68
51081;BME280;37130;55.670;37.596;2023-02-21T16:10:32;97713.84;;;-11.76;70.00
51081;BME280;37130;55.670;37.596;2023-02-21T16:13:00;97634.31;;;-12.19;70.27
51081;BME280;37130;55.670;37.596;2023-02-21T16:15:31;97716.44;;;-11.70;70.11
51081;BME280;37130;55.670;37.596;2023-02-21T16:18:05;97680.50;;;-11.94;69.97
51081;BME280;37130;55.670;37.596;2023-02-21T16:20:40;97736.97;;;-11.59;69.68